Decoded Metar for CYLD (CHAPLEAU in ON, CANADA) (IATA:YLD) | Meteo·Mobile Aviation Weather
aviador You're here:

CYLD Decoded Metar

CHAPLEAU in ON, CANADA
Report Time2019-04-21 00:00:00
UTC Time2019-04-21 01:09:46
Flight Rules Old
Wind250° at 02 kt
W.Decomp.*RWY 28: 1.9 kt HW 0.7 kt LCW
RWY 23: 1.7 kt HW 1.0 kt RCW
Visibility9999 m
Phenomena:N/A
Clouds:N/A
Expected CloudBase > 5,600 ft AGL from Temp-Dew spread
CeilingNone
Temp09°C (ISA -3)
Dew Point-5°C (37% RH)
AAT5.7°C
QNH1007 hPa
Density Alt1,365 ft
Elevation1,467 ft
Report Wrong Elevation
Raw Report
CYLD 210000Z 25002KT 15SM SKC 09/M05 A2975 RMK SLP097=

Extra information for CYLD:More info

Metar Taf Metar & Taf Last 4 Metars F.Rules Stats Wind Profile Meteogram Temp Stats Airport Information Weather charts Add Link Nearby VenuesMetar ALERT Operation Metar Decoded Social comments